Time;durP1;ratioP1;P1;durP2;ratioP2;P2;SDS_P1;SDS_P2;PMS_P1;PMS_P2;Temp;Humidity;BMP_temperature;BMP_pressure;BME280_temperature;BME280_humidity;BME280_pressure;Samples;Min_cycle;Max_cycle;Signal;HPM_P1;HPM_P2
2021/12/08 00:01:36;;;;;;;;;;;3.00;99.90;;;;;;6307358;22;20030;-85
2021/12/08 00:04:22;;;;;;;11.60;4.68;;;3.20;99.90;;;;;;6307524;22;20272;-86
2021/12/08 00:07:07;;;;;;;12.20;4.27;;;2.90;99.90;;;;;;6286227;22;20037;-86
2021/12/08 00:10:14;;;;;;;13.43;4.60;;;3.00;99.90;;;;;;6285804;22;20021;-84
2021/12/08 00:13:07;;;;;;;9.53;3.87;;;3.40;99.90;;;;;;6307418;22;20108;-85
2021/12/08 00:15:54;;;;;;;10.63;4.20;;;3.60;99.90;;;;;;6308398;22;20029;-86
2021/12/08 00:18:45;;;;;;;11.87;4.40;;;3.30;99.90;;;;;;6306714;22;20014;-85
2021/12/08 00:21:30;;;;;;;12.97;5.27;;;3.70;99.90;;;;;;6306983;22;20464;-86
2021/12/08 00:24:14;;;;;;;12.87;3.67;;;3.10;99.90;;;;;;6285166;22;20018;-86
2021/12/08 00:26:58;;;;;;;;;;;3.10;99.90;;;;;;6308896;22;20060;-86
2021/12/08 00:29:43;;;;;;;9.40;3.83;;;4.40;99.90;;;;;;6306787;22;19910;-85
2021/12/08 00:32:30;;;;;;;9.33;4.00;;;4.00;99.90;;;;;;6306916;22;20025;-87
2021/12/08 00:35:14;;;;;;;13.30;4.10;;;4.10;99.90;;;;;;6308329;22;20448;-85
2021/12/08 00:38:00;;;;;;;9.47;3.90;;;3.60;99.90;;;;;;6285279;22;20072;-85
2021/12/08 00:40:46;;;;;;;12.27;4.60;;;3.20;99.90;;;;;;6307698;22;20091;-86
2021/12/08 00:43:33;;;;;;;10.13;3.90;;;3.10;99.90;;;;;;6306679;22;20033;-87
2021/12/08 00:46:17;;;;;;;15.13;4.70;;;3.60;99.90;;;;;;6308325;22;20333;-86
2021/12/08 00:49:01;;;;;;;12.53;5.33;;;3.10;99.90;;;;;;6285046;22;20572;-87
2021/12/08 00:51:46;;;;;;;8.27;4.40;;;3.80;99.90;;;;;;6307712;22;20096;-86
2021/12/08 00:54:30;;;;;;;11.43;4.50;;;3.80;99.90;;;;;;6306554;22;20022;-87
2021/12/08 00:57:14;;;;;;;8.88;3.85;;;3.10;99.90;;;;;;6306951;22;20014;-86
2021/12/08 01:00:02;;;;;;;7.23;3.77;;;3.10;99.90;;;;;;6284869;22;20028;-87
2021/12/08 01:02:46;;;;;;;5.83;3.90;;;3.90;99.90;;;;;;6307582;22;20082;-88
2021/12/08 01:05:36;;;;;;;;;;;3.50;99.90;;;;;;6307195;22;20022;-86
2021/12/08 01:08:27;;;;;;;9.37;4.07;;;3.20;99.90;;;;;;6306910;22;19929;-88
2021/12/08 01:11:14;;;;;;;9.27;4.30;;;3.20;99.90;;;;;;6308033;22;20018;-87
2021/12/08 01:13:59;;;;;;;13.83;4.07;;;4.40;99.90;;;;;;6306622;22;20014;-86
2021/12/08 01:16:44;;;;;;;14.03;3.67;;;3.20;99.90;;;;;;6284342;22;20017;-87
2021/12/08 01:19:28;;;;;;;7.60;3.83;;;4.10;99.90;;;;;;6306854;22;20023;-87
2021/12/08 01:22:12;;;;;;;12.83;4.00;;;3.70;99.90;;;;;;6306654;22;20013;-86
2021/12/08 01:24:57;;;;;;;9.53;5.37;;;4.30;99.90;;;;;;6306090;22;20018;-87
2021/12/08 01:27:41;;;;;;;;;;;3.40;99.90;;;;;;6306592;22;20056;-86
2021/12/08 01:30:25;;;;;;;7.53;4.05;;;3.40;99.90;;;;;;6308216;22;20320;-87
2021/12/08 01:33:09;;;;;;;8.63;4.07;;;4.10;99.90;;;;;;6306673;22;20018;-87
2021/12/08 01:35:54;;;;;;;8.93;4.03;;;3.40;99.90;;;;;;6305923;22;20098;-87
2021/12/08 01:38:39;;;;;;;8.43;3.87;;;3.70;99.90;;;;;;6284419;22;20037;-87
2021/12/08 01:41:24;;;;;;;7.67;4.23;;;3.40;99.90;;;;;;6307855;22;20045;-87
2021/12/08 01:47:12;;;;;;;13.20;4.40;;;3.40;99.90;;;;;;6307810;22;20019;-86
2021/12/08 01:49:56;;;;;;;9.97;4.03;;;3.90;99.90;;;;;;6305954;22;20102;-86
2021/12/08 01:52:40;;;;;;;7.32;3.95;;;3.40;99.90;;;;;;6307279;22;20394;-88
2021/12/08 01:55:24;;;;;;;13.07;4.67;;;3.40;99.90;;;;;;6284472;22;20448;-87
2021/12/08 01:58:10;;;;;;;;;;;3.40;99.90;;;;;;6284929;22;20018;-87
2021/12/08 02:01:06;;;;;;;10.20;4.70;;;4.60;99.90;;;;;;6305651;22;19917;-86
2021/12/08 02:03:51;;;;;;;8.13;4.10;;;3.70;99.90;;;;;;6307186;22;20037;-87
2021/12/08 02:06:42;;;;;;;10.43;4.50;;;3.40;99.90;;;;;;6284629;22;20495;-86
2021/12/08 02:09:27;;;;;;;11.73;4.27;;;3.40;99.90;;;;;;6307763;22;20057;-88
2021/12/08 02:12:11;;;;;;;9.17;4.63;;;3.40;99.90;;;;;;6306265;22;20015;-88
2021/12/08 02:14:58;;;;;;;9.53;3.87;;;3.60;99.90;;;;;;6283704;22;20098;-90
2021/12/08 02:17:48;;;;;;;13.67;4.40;;;3.50;99.90;;;;;;6307313;22;20025;-89
2021/12/08 02:20:33;;;;;;;9.07;4.83;;;3.80;99.90;;;;;;6306236;22;20025;-88
2021/12/08 02:23:19;;;;;;;9.23;4.30;;;4.50;99.90;;;;;;6284524;22;20015;-92
2021/12/08 02:26:04;;;;;;;8.53;4.10;;;3.50;99.90;;;;;;6306753;22;20009;-87
2021/12/08 02:28:49;;;;;;;12.60;4.10;;;3.50;99.90;;;;;;6283780;22;20068;-88
2021/12/08 02:46:50;;;;;;;9.47;4.03;;;3.80;99.90;;;;;;6306120;22;20034;-87
2021/12/08 02:49:36;;;;;;;7.60;3.93;;;3.50;99.90;;;;;;6306213;22;20435;-87
2021/12/08 02:52:21;;;;;;;10.70;3.77;;;3.50;99.90;;;;;;6306107;22;20053;-87
2021/12/08 02:55:07;;;;;;;14.00;4.60;;;4.10;99.90;;;;;;6305261;22;20045;-87
2021/12/08 02:57:52;;;;;;;8.43;3.60;;;3.50;99.90;;;;;;6283700;22;20030;-88
2021/12/08 03:00:41;;;;;;;13.90;4.50;;;4.30;99.90;;;;;;6283861;22;20102;-87
2021/12/08 03:03:25;;;;;;;7.77;4.20;;;4.30;99.90;;;;;;6306846;22;20072;-86
2021/12/08 03:06:12;;;;;;;7.83;4.63;;;3.50;99.90;;;;;;6283134;22;20523;-87
2021/12/08 03:08:56;;;;;;;13.80;5.63;;;3.50;99.90;;;;;;6306646;22;20010;-87
2021/12/08 03:11:41;;;;;;;10.23;4.90;;;3.50;99.90;;;;;;6305528;22;20022;-87
2021/12/08 03:14:26;;;;;;;12.70;4.97;;;4.20;99.90;;;;;;6305624;22;20401;-86
2021/12/08 03:17:10;;;;;;;8.00;4.77;;;3.60;99.90;;;;;;6306285;22;20019;-87
2021/12/08 03:19:54;;;;;;;;;;;4.80;99.90;;;;;;6305413;22;20345;-88
2021/12/08 03:22:44;;;;;;;10.18;4.97;;;3.60;99.90;;;;;;6305684;22;19910;-86
2021/12/08 03:25:29;;;;;;;7.30;4.70;;;3.60;99.90;;;;;;6284776;22;20061;-92
2021/12/08 03:28:21;;;;;;;7.13;4.63;;;3.90;99.90;;;;;;6283172;22;20021;-88
2021/12/08 03:31:11;;;;;;;10.67;5.23;;;3.60;99.90;;;;;;6305069;22;20388;-87
2021/12/08 03:33:55;;;;;;;11.83;5.23;;;4.50;99.90;;;;;;6264094;22;20392;-88
2021/12/08 03:36:40;;;;;;;12.90;5.93;;;4.80;99.90;;;;;;6306573;22;20018;-86
2021/12/08 03:39:25;;;;;;;8.60;6.00;;;4.20;99.90;;;;;;6305387;22;20022;-87
2021/12/08 03:42:10;;;;;;;12.70;5.60;;;4.30;99.90;;;;;;6283125;22;20072;-87
2021/12/08 03:44:58;;;;;;;10.70;5.80;;;4.90;99.90;;;;;;6305454;22;20014;-87
2021/12/08 03:47:46;;;;;;;11.57;6.03;;;4.90;99.90;;;;;;6306738;22;20010;-88
2021/12/08 03:50:34;;;;;;;10.27;7.10;;;3.80;99.90;;;;;;6305317;22;20515;-87
2021/12/08 03:53:18;;;;;;;10.20;5.70;;;4.30;99.90;;;;;;6304604;22;20072;-87
2021/12/08 03:56:03;;;;;;;12.23;6.03;;;3.80;99.90;;;;;;6306537;22;20027;-87
2021/12/08 03:58:48;;;;;;;10.27;6.70;;;3.80;99.90;;;;;;6305513;22;20345;-87
2021/12/08 04:01:33;;;;;;;11.80;6.27;;;4.70;99.90;;;;;;6283681;22;20117;-87
2021/12/08 04:04:18;;;;;;;9.87;6.60;;;4.60;99.90;;;;;;6306126;22;20014;-87
2021/12/08 04:07:03;;;;;;;10.37;6.50;;;4.60;99.90;;;;;;6306004;22;20042;-88
2021/12/08 04:09:48;;;;;;;14.40;7.03;;;3.90;99.90;;;;;;6305266;22;20061;-87
2021/12/08 04:12:33;;;;;;;11.80;7.10;;;4.00;99.90;;;;;;6283617;22;20013;-87
2021/12/08 04:15:19;;;;;;;11.13;6.60;;;4.00;99.90;;;;;;6304822;22;20484;-87
2021/12/08 04:18:04;;;;;;;14.50;8.23;;;4.10;99.90;;;;;;6304989;22;20401;-88
2021/12/08 04:20:53;;;;;;;14.10;7.03;;;4.00;99.90;;;;;;6306430;22;20073;-87
2021/12/08 04:23:40;;;;;;;12.73;6.87;;;4.00;99.90;;;;;;6306454;22;20010;-86
2021/12/08 04:26:35;;;;;;;10.83;8.00;;;4.50;99.90;;;;;;6304696;22;20079;-87
2021/12/08 04:29:24;;;;;;;14.07;7.93;;;4.10;99.90;;;;;;6304731;22;20014;-87
2021/12/08 04:32:14;;;;;;;12.40;7.33;;;4.20;99.90;;;;;;6304547;22;20011;-88
2021/12/08 04:34:59;;;;;;;14.30;7.90;;;3.30;99.90;;;;;;6305291;22;20057;-87
2021/12/08 04:37:48;;;;;;;12.63;8.50;;;5.20;99.90;;;;;;6283540;22;20018;-88
2021/12/08 04:43:44;;;;;;;14.20;8.27;;;5.00;99.90;;;;;;6307781;22;20469;-86
2021/12/08 04:52:29;;;;;;;13.07;8.33;;;5.70;99.90;;;;;;6307870;22;20460;-87
2021/12/08 05:05:04;;;;;;;15.98;8.18;;;5.40;99.90;;;;;;6306388;22;20137;-88
2021/12/08 05:07:49;;;;;;;15.07;7.83;;;4.60;99.90;;;;;;6306575;22;20104;-87
2021/12/08 05:10:36;;;;;;;10.52;7.43;;;6.00;99.90;;;;;;6306126;22;20060;-87
2021/12/08 05:13:20;;;;;;;11.90;7.93;;;4.60;99.90;;;;;;6306330;22;20449;-88
2021/12/08 05:16:05;;;;;;;12.97;8.73;;;5.40;99.90;;;;;;6308149;22;20423;-87
2021/12/08 05:18:53;;;;;;;14.05;8.38;;;4.70;99.90;;;;;;6284911;22;20353;-87
2021/12/08 05:21:48;;;;;;;12.25;7.57;;;5.50;99.90;;;;;;6306333;22;20076;-87
2021/12/08 05:24:36;;;;;;;11.60;7.72;;;4.70;99.90;;;;;;6307425;22;20014;-87
2021/12/08 05:27:40;;;;;;;12.75;7.78;;;5.50;99.90;;;;;;6306098;22;20064;-87
2021/12/08 05:30:29;;;;;;;9.35;7.05;;;4.80;99.90;;;;;;6307507;22;20015;-87
2021/12/08 05:33:14;;;;;;;12.37;8.53;;;5.20;99.90;;;;;;6307855;22;20014;-87
2021/12/08 05:35:59;;;;;;;13.98;7.68;;;4.90;99.90;;;;;;6307762;22;20013;-87
2021/12/08 05:38:43;;;;;;;13.05;7.03;;;6.10;99.90;;;;;;6307905;22;20439;-87
2021/12/08 05:41:31;;;;;;;12.65;7.70;;;5.50;99.90;;;;;;6306031;22;20034;-87
2021/12/08 05:44:17;;;;;;;10.60;7.10;;;4.90;99.90;;;;;;6306441;22;20064;-87
2021/12/08 05:47:07;;;;;;;12.25;7.25;;;4.90;99.90;;;;;;6307764;22;20014;-87
2021/12/08 05:49:52;;;;;;;9.77;7.10;;;5.20;99.90;;;;;;6306364;22;20072;-87
2021/12/08 05:52:37;;;;;;;13.27;7.47;;;5.70;99.90;;;;;;6305896;22;20015;-87
2021/12/08 05:55:21;;;;;;;12.13;7.25;;;5.00;99.90;;;;;;6305817;22;20408;-87
2021/12/08 05:58:06;;;;;;;;;;;6.30;99.90;;;;;;6308022;22;20019;-87
2021/12/08 06:01:11;;;;;;;11.05;6.72;;;5.10;99.90;;;;;;6306242;22;20014;-87
2021/12/08 06:03:55;;;;;;;12.57;6.82;;;5.10;99.90;;;;;;6306247;22;20011;-87
2021/12/08 06:06:41;;;;;;;11.18;7.20;;;5.10;99.90;;;;;;6283907;22;20010;-87
2021/12/08 06:09:27;;;;;;;13.48;6.72;;;6.40;99.90;;;;;;6305788;22;20014;-87
2021/12/08 06:12:12;;;;;;;15.13;6.55;;;5.80;99.90;;;;;;6284652;22;20478;-87
2021/12/08 06:14:56;;;;;;;14.20;6.63;;;4.30;99.90;;;;;;6262651;22;20018;-87
2021/12/08 06:17:41;;;;;;;12.88;6.65;;;6.20;99.90;;;;;;6262099;22;20577;-88
2021/12/08 06:20:27;;;;;;;12.45;6.55;;;6.00;99.90;;;;;;6305636;22;20507;-87
2021/12/08 06:23:12;;;;;;;12.20;6.47;;;6.10;99.90;;;;;;6307083;22;20448;-85
2021/12/08 06:25:59;;;;;;;9.20;6.20;;;5.40;99.90;;;;;;6284324;22;20022;-87
2021/12/08 06:28:43;;;;;;;15.48;6.85;;;4.90;99.90;;;;;;6305436;22;20014;-86
2021/12/08 06:31:29;;;;;;;10.55;6.10;;;5.00;99.90;;;;;;6305656;22;20369;-87
2021/12/08 06:34:14;;;;;;;14.68;6.57;;;5.40;99.90;;;;;;6305870;22;20456;-87
2021/12/08 06:37:10;;;;;;;11.18;6.25;;;5.00;99.90;;;;;;6284201;22;20090;-87
2021/12/08 06:40:03;;;;;;;10.18;5.28;;;5.70;99.90;;;;;;6305841;22;20340;-86
2021/12/08 06:42:51;;;;;;;12.90;7.05;;;6.10;99.90;;;;;;6305442;22;20496;-87
2021/12/08 06:45:42;;;;;;;13.80;5.72;;;4.80;99.90;;;;;;6306505;22;20074;-87
2021/12/08 06:48:34;;;;;;;9.40;5.28;;;4.90;99.90;;;;;;6305692;22;20018;-87
2021/12/08 06:51:29;;;;;;;10.93;5.43;;;4.70;99.90;;;;;;6306002;22;20018;-87
2021/12/08 06:54:28;;;;;;;7.88;5.07;;;4.80;99.90;;;;;;6306061;22;20448;-87
2021/12/08 06:57:21;;;;;;;10.68;6.10;;;4.90;99.90;;;;;;6305864;22;20018;-87
2021/12/08 07:00:47;;;;;;;9.63;5.47;;;4.80;99.90;;;;;;6305758;22;20038;-87
2021/12/08 07:03:44;;;;;;;9.05;5.65;;;4.80;99.90;;;;;;6304973;22;20060;-87
2021/12/08 07:09:36;;;;;;;9.43;4.90;;;4.70;99.90;;;;;;6306967;22;20093;-87
2021/12/08 07:12:23;;;;;;;10.13;5.70;;;4.70;99.90;;;;;;6305877;22;20072;-87
2021/12/08 07:15:16;;;;;;;9.88;5.13;;;4.60;99.90;;;;;;6305882;22;20022;-87
2021/12/08 07:18:11;;;;;;;11.93;4.38;;;5.10;99.90;;;;;;6306931;22;20011;-87
2021/12/08 07:21:03;;;;;;;10.85;4.68;;;4.60;99.90;;;;;;6305041;22;20341;-87
2021/12/08 07:23:58;;;;;;;9.23;4.13;;;4.60;99.90;;;;;;6306422;22;20010;-86
2021/12/08 07:26:44;;;;;;;12.27;4.35;;;4.40;99.90;;;;;;6304978;22;20013;-87
2021/12/08 07:29:34;;;;;;;7.68;3.97;;;4.70;99.90;;;;;;6305686;22;20014;-86
2021/12/08 07:32:24;;;;;;;12.03;4.77;;;5.70;99.90;;;;;;6305612;22;20010;-86
2021/12/08 07:35:47;;;;;;;10.63;3.60;;;4.60;99.90;;;;;;6305662;22;20058;-86
2021/12/08 07:38:32;;;;;;;9.57;4.25;;;4.60;99.90;;;;;;6161322;23;20096;-86
2021/12/08 07:41:32;;;;;;;6.73;3.93;;;4.60;99.90;;;;;;6305455;22;20022;-87
2021/12/08 07:44:16;;;;;;;8.50;2.97;;;4.60;99.90;;;;;;6305448;22;20141;-87
2021/12/08 07:47:06;;;;;;;7.23;3.20;;;5.80;99.90;;;;;;6305251;22;20376;-88
2021/12/08 07:49:56;;;;;;;6.47;3.10;;;4.60;99.90;;;;;;6306269;22;20510;-87
2021/12/08 07:52:44;;;;;;;9.18;3.30;;;6.10;99.90;;;;;;6305031;22;20060;-88
2021/12/08 07:55:37;;;;;;;8.90;3.50;;;5.50;99.90;;;;;;6305123;22;20069;-90
2021/12/08 07:58:22;;;;;;;6.10;3.40;;;4.60;99.90;;;;;;6305608;22;20502;-88
2021/12/08 08:01:13;;;;;;;5.97;3.28;;;5.20;99.90;;;;;;6305622;22;20341;-88
2021/12/08 08:03:59;;;;;;;7.75;3.38;;;4.60;99.90;;;;;;6304924;22;20456;-86
2021/12/08 08:06:48;;;;;;;9.20;5.57;;;4.60;99.90;;;;;;6306150;22;20014;-88
2021/12/08 08:09:38;;;;;;;7.20;3.22;;;5.20;99.90;;;;;;6305727;22;20018;-88
2021/12/08 08:12:23;;;;;;;9.10;3.17;;;4.60;99.90;;;;;;6306630;22;20073;-87
2021/12/08 08:15:30;;;;;;;15.57;4.30;;;5.80;99.90;;;;;;6307119;22;20017;-87
2021/12/08 08:18:20;;;;;;;7.85;3.10;;;4.60;99.90;;;;;;6308781;22;20014;-88
2021/12/08 08:21:12;;;;;;;6.38;2.85;;;6.60;99.90;;;;;;6306734;22;20075;-87
2021/12/08 08:23:58;;;;;;;7.22;3.08;;;4.60;99.90;;;;;;6306955;22;20014;-87
2021/12/08 08:26:45;;;;;;;8.57;2.80;;;4.00;99.90;;;;;;6307078;22;20018;-86
2021/12/08 08:29:30;;;;;;;7.22;2.58;;;4.70;99.90;;;;;;6307660;22;20054;-87
2021/12/08 08:32:22;;;;;;;9.35;2.90;;;4.70;99.90;;;;;;6307494;22;20064;-87
2021/12/08 08:35:19;;;;;;;10.30;2.83;;;5.20;99.90;;;;;;6306764;22;20016;-87
2021/12/08 08:38:08;;;;;;;10.40;2.70;;;4.80;99.90;;;;;;6308018;22;20068;-87
2021/12/08 08:41:08;;;;;;;7.10;2.80;;;6.10;99.90;;;;;;6306599;22;20049;-87
2021/12/08 08:43:56;;;;;;;8.05;2.50;;;4.80;99.90;;;;;;6306708;22;20406;-86
2021/12/08 08:46:45;;;;;;;6.37;2.53;;;6.20;99.90;;;;;;6307258;22;20446;-87
2021/12/08 08:49:32;;;;;;;8.83;2.63;;;4.80;99.90;;;;;;6307013;22;20518;-87
2021/12/08 08:52:31;;;;;;;7.83;2.43;;;4.80;99.90;;;;;;6284883;22;20068;-86
2021/12/08 08:55:22;;;;;;;9.48;2.70;;;4.90;99.90;;;;;;6306714;22;20064;-87
2021/12/08 08:58:08;;;;;;;7.88;2.13;;;5.00;99.90;;;;;;6307414;22;20448;-86
2021/12/08 09:01:15;;;;;;;8.60;2.58;;;5.50;99.90;;;;;;6307598;22;20141;-87
2021/12/08 09:04:07;;;;;;;6.55;1.88;;;5.10;99.90;;;;;;6307805;22;20350;-87
2021/12/08 09:07:02;;;;;;;8.80;2.17;;;4.70;99.90;;;;;;6306442;22;20064;-87
2021/12/08 09:09:47;;;;;;;8.50;2.15;;;5.40;99.90;;;;;;6308105;22;20015;-87
2021/12/08 09:12:40;;;;;;;7.38;2.08;;;5.30;99.90;;;;;;6308200;22;20060;-86
2021/12/08 09:15:44;;;;;;;9.05;2.00;;;5.30;99.90;;;;;;6308323;22;20014;-88
2021/12/08 09:18:51;;;;;;;8.90;2.30;;;5.30;99.90;;;;;;6308063;22;20014;-87
2021/12/08 09:21:48;;;;;;;7.93;2.67;;;5.30;99.90;;;;;;6306855;22;20021;-87
2021/12/08 09:24:48;;;;;;;9.02;2.30;;;5.30;99.90;;;;;;6306790;22;20049;-87
2021/12/08 09:27:37;;;;;;;8.57;2.00;;;5.30;99.90;;;;;;6306804;22;20014;-86
2021/12/08 09:30:33;;;;;;;18.35;3.28;;;5.40;99.90;;;;;;6308093;22;20021;-85
2021/12/08 09:33:26;;;;;;;9.25;2.65;;;5.30;99.90;;;;;;6306185;22;20330;-87
2021/12/08 09:36:15;;;;;;;11.48;2.58;;;5.30;99.90;;;;;;6306256;22;20010;-87
2021/12/08 09:39:17;;;;;;;9.65;2.17;;;6.00;99.90;;;;;;6306186;22;20010;-86
2021/12/08 09:42:22;;;;;;;10.75;2.38;;;5.30;99.90;;;;;;6307296;22;20038;-87
2021/12/08 09:45:18;;;;;;;9.10;2.20;;;5.40;99.90;;;;;;6306084;22;20076;-86
2021/12/08 09:48:05;;;;;;;10.25;2.35;;;5.30;99.90;;;;;;6307284;22;20502;-86
2021/12/08 09:50:49;;;;;;;6.47;2.28;;;5.40;99.90;;;;;;6284770;22;20151;-86
2021/12/08 09:53:35;;;;;;;8.98;2.63;;;5.30;99.90;;;;;;6307996;22;20018;-85
2021/12/08 09:56:21;;;;;;;7.53;2.10;;;5.40;99.90;;;;;;6284014;22;20018;-85
2021/12/08 09:59:07;;;;;;;8.93;2.25;;;5.50;99.90;;;;;;6307226;22;20072;-86
2021/12/08 10:01:53;;;;;;;8.25;2.28;;;6.20;99.90;;;;;;6306418;22;20026;-86
2021/12/08 10:04:37;;;;;;;8.95;2.42;;;6.00;99.90;;;;;;6306493;22;20094;-86
2021/12/08 10:07:22;;;;;;;10.77;2.85;;;5.50;99.90;;;;;;6305913;22;20054;-86
2021/12/08 10:10:10;;;;;;;10.65;3.00;;;5.50;99.90;;;;;;6284196;22;20022;-86
2021/12/08 10:12:55;;;;;;;8.05;2.50;;;5.50;99.90;;;;;;6307571;22;20010;-86
2021/12/08 10:15:39;;;;;;;8.57;3.28;;;5.50;99.90;;;;;;6284507;22;20106;-85
2021/12/08 10:18:23;;;;;;;11.10;2.85;;;5.60;99.90;;;;;;6306894;22;20330;-85
2021/12/08 10:21:11;;;;;;;13.07;2.83;;;5.60;99.90;;;;;;6305265;22;20041;-86
2021/12/08 10:23:55;;;;;;;11.18;2.92;;;5.60;99.90;;;;;;6307201;22;20014;-85
2021/12/08 10:26:39;;;;;;;;;;;6.70;99.90;;;;;;6306587;22;20014;-85
2021/12/08 10:29:26;;;;;;;9.43;3.08;;;7.00;99.90;;;;;;6305602;22;19905;-85
2021/12/08 10:32:15;;;;;;;9.88;2.95;;;6.10;99.90;;;;;;6306741;22;20495;-85
2021/12/08 10:35:05;;;;;;;10.25;2.70;;;6.50;99.90;;;;;;6306065;22;20030;-86
2021/12/08 10:38:00;;;;;;;10.90;3.88;;;6.10;99.90;;;;;;6264793;22;20018;-85
2021/12/08 10:41:05;;;;;;;12.50;2.75;;;5.80;99.90;;;;;;6307398;22;20026;-84
2021/12/08 10:44:00;;;;;;;11.13;2.75;;;5.90;99.90;;;;;;6307366;22;20014;-85
2021/12/08 10:46:44;;;;;;;12.88;3.13;;;5.90;99.90;;;;;;6305970;22;20046;-84
2021/12/08 10:55:24;;;;;;;13.80;3.25;;;6.00;99.90;;;;;;6306773;22;20152;-86
2021/12/08 10:58:20;;;;;;;9.68;3.20;;;6.80;99.90;;;;;;6305625;22;20068;-87
2021/12/08 11:01:16;;;;;;;11.40;2.75;;;6.00;99.90;;;;;;6305748;22;20141;-86
2021/12/08 11:04:07;;;;;;;7.72;2.35;;;6.00;99.90;;;;;;6305756;22;20490;-85
2021/12/08 11:07:01;;;;;;;10.00;2.45;;;6.00;99.90;;;;;;6305885;22;20045;-85
2021/12/08 11:09:46;;;;;;;12.40;4.40;;;6.00;99.90;;;;;;6305742;22;20053;-86
2021/12/08 11:12:41;;;;;;;12.77;2.90;;;6.10;99.90;;;;;;6305355;22;20015;-86
2021/12/08 11:15:27;;;;;;;11.88;3.20;;;6.10;99.90;;;;;;6305328;22;20015;-86
2021/12/08 11:18:22;;;;;;;9.10;2.58;;;6.00;99.90;;;;;;6284078;22;20022;-87
2021/12/08 11:21:21;;;;;;;10.70;2.85;;;6.10;99.90;;;;;;6306821;22;20336;-86
2021/12/08 11:24:35;;;;;;;14.18;3.05;;;6.10;99.90;;;;;;6307017;22;20064;-85
2021/12/08 11:27:34;;;;;;;9.70;2.60;;;6.20;99.90;;;;;;6305146;22;20391;-86
2021/12/08 11:30:22;;;;;;;12.88;2.85;;;6.20;99.90;;;;;;6305181;22;20072;-86
2021/12/08 11:33:17;;;;;;;14.20;3.10;;;6.20;99.90;;;;;;6284635;22;20017;-85
2021/12/08 11:36:13;;;;;;;8.75;2.50;;;6.30;99.90;;;;;;6284133;22;20053;-86
2021/12/08 11:39:04;;;;;;;13.55;4.45;;;6.30;99.90;;;;;;6306781;22;20064;-86
2021/12/08 11:41:51;;;;;;;11.13;2.67;;;6.30;99.90;;;;;;6305705;22;20018;-86
2021/12/08 11:44:42;;;;;;;11.73;2.88;;;6.30;99.90;;;;;;6305029;22;20087;-85
2021/12/08 11:47:32;;;;;;;7.45;3.28;;;6.30;99.90;;;;;;6306277;22;20042;-86
2021/12/08 11:50:21;;;;;;;10.05;2.83;;;6.20;99.90;;;;;;6305473;22;20014;-87
2021/12/08 11:53:05;;;;;;;12.48;2.42;;;6.20;99.90;;;;;;6306360;22;20010;-85
2021/12/08 11:55:49;;;;;;;7.03;2.85;;;6.30;99.90;;;;;;6304289;22;20030;-85
2021/12/08 11:58:52;;;;;;;11.30;2.05;;;6.20;99.90;;;;;;6304787;22;20015;-86
2021/12/08 12:01:37;;;;;;;11.25;2.90;;;6.20;99.90;;;;;;6304769;22;20018;-86
2021/12/08 12:04:22;;;;;;;11.82;2.67;;;7.50;99.90;;;;;;6306153;22;20018;-86
2021/12/08 12:07:13;;;;;;;8.68;2.78;;;7.00;99.90;;;;;;6283549;22;20096;-86
2021/12/08 12:09:58;;;;;;;8.95;3.20;;;6.10;99.90;;;;;;6305330;22;20050;-86
2021/12/08 12:12:42;;;;;;;;;;;6.10;99.90;;;;;;6283584;22;20014;-87
2021/12/08 12:15:26;;;;;;;9.50;2.78;;;6.60;99.90;;;;;;6283069;22;20284;-86
2021/12/08 12:18:11;;;;;;;8.73;2.55;;;6.00;99.90;;;;;;6306685;22;20099;-86
2021/12/08 12:21:07;;;;;;;12.52;3.53;;;6.00;99.90;;;;;;6305313;22;20013;-86
2021/12/08 12:24:15;;;;;;;14.07;4.00;;;6.00;99.90;;;;;;6305398;22;20046;-85
2021/12/08 12:27:47;;;;;;;9.02;3.55;;;6.20;99.90;;;;;;6259949;22;20030;-87
2021/12/08 12:31:05;;;;;;;11.65;3.00;;;6.00;99.90;;;;;;6181410;23;20020;-86
2021/12/08 12:33:51;;;;;;;7.47;3.25;;;6.00;99.90;;;;;;6181511;22;20024;-85
2021/12/08 12:36:35;;;;;;;9.88;2.40;;;6.00;99.90;;;;;;6306088;22;20010;-86
2021/12/08 12:39:24;;;;;;;9.73;3.75;;;6.30;99.90;;;;;;6305262;22;20018;-86
2021/12/08 12:42:15;;;;;;;6.63;2.88;;;6.80;99.90;;;;;;6305222;22;20022;-86
2021/12/08 12:45:02;;;;;;;13.35;4.47;;;6.00;99.90;;;;;;6305369;22;20014;-85
2021/12/08 12:48:13;;;;;;;7.53;2.50;;;6.00;99.90;;;;;;6305879;22;20010;-86
2021/12/08 12:51:06;;;;;;;8.00;2.72;;;6.00;99.90;;;;;;6306467;22;20018;-85
2021/12/08 12:53:55;;;;;;;8.73;2.75;;;6.00;99.90;;;;;;6302182;22;20018;-87
2021/12/08 12:56:39;;;;;;;8.73;3.22;;;6.70;99.90;;;;;;6303535;22;20022;-85
2021/12/08 12:59:51;;;;;;;9.05;2.88;;;6.20;99.90;;;;;;6304000;22;20118;-85
2021/12/08 13:02:47;;;;;;;10.50;2.58;;;5.90;99.90;;;;;;6305381;22;20064;-86
2021/12/08 13:05:53;;;;;;;10.02;2.33;;;6.70;99.90;;;;;;6306699;22;20094;-86
2021/12/08 13:08:40;;;;;;;7.88;2.50;;;6.00;99.90;;;;;;6305371;22;20064;-85
2021/12/08 13:11:47;;;;;;;10.05;3.10;;;7.00;99.90;;;;;;6305896;22;20501;-85
2021/12/08 13:14:31;;;;;;;9.90;2.55;;;6.20;99.90;;;;;;6305298;22;20054;-86
2021/12/08 13:17:23;;;;;;;10.68;2.92;;;6.00;99.90;;;;;;6305837;22;20061;-85
2021/12/08 13:20:11;;;;;;;8.93;3.00;;;6.00;99.90;;;;;;6305766;22;20090;-86
2021/12/08 13:22:58;;;;;;;9.73;2.72;;;6.00;99.90;;;;;;6305276;22;20018;-86
2021/12/08 13:28:34;;;;;;;;;;;6.00;99.90;;;;;;6307567;22;20026;-86
2021/12/08 13:34:24;;;;;;;10.02;3.63;;;5.90;99.90;;;;;;6305296;22;20018;-84
2021/12/08 13:37:19;;;;;;;12.75;2.95;;;5.90;99.90;;;;;;6303326;22;20018;-85
2021/12/08 13:40:09;;;;;;;7.10;2.20;;;5.90;99.90;;;;;;6303917;22;20014;-85
2021/12/08 13:42:55;;;;;;;8.70;3.10;;;5.90;99.90;;;;;;6304894;22;20561;-85
2021/12/08 13:45:45;;;;;;;8.75;2.03;;;5.90;99.90;;;;;;6306323;22;20018;-86
2021/12/08 13:48:29;;;;;;;5.20;2.10;;;5.90;99.90;;;;;;6305526;22;20013;-86
2021/12/08 13:51:20;;;;;;;10.30;2.78;;;6.00;99.90;;;;;;6306786;22;20018;-86
2021/12/08 13:54:38;;;;;;;8.55;2.65;;;6.20;99.90;;;;;;6305530;22;20439;-86
2021/12/08 13:57:27;;;;;;;7.30;3.00;;;6.00;99.90;;;;;;6214651;22;20513;-84
2021/12/08 14:00:17;;;;;;;10.38;2.22;;;6.30;99.90;;;;;;6305882;22;20500;-85
2021/12/08 14:03:02;;;;;;;7.70;2.58;;;6.80;99.90;;;;;;6304866;22;20034;-85
2021/12/08 14:05:57;;;;;;;5.32;1.95;;;6.00;99.90;;;;;;6305067;22;20145;-84
2021/12/08 14:08:45;;;;;;;7.35;2.25;;;5.90;99.90;;;;;;6304826;22;20018;-85
2021/12/08 14:11:30;;;;;;;5.30;2.13;;;5.80;99.90;;;;;;6306432;22;20067;-84
2021/12/08 14:14:14;;;;;;;12.43;3.00;;;5.80;99.90;;;;;;6305087;22;20018;-84
2021/12/08 14:16:59;;;;;;;7.63;2.30;;;5.80;99.90;;;;;;6304780;22;20088;-84
2021/12/08 14:19:43;;;;;;;9.82;2.58;;;6.70;99.90;;;;;;6261178;22;20014;-85
2021/12/08 14:22:38;;;;;;;;;;;5.80;99.90;;;;;;6305801;22;20014;-85
2021/12/08 14:25:33;;;;;;;;;;;5.70;99.90;;;;;;6306681;22;19964;-85
2021/12/08 14:28:40;;;;;;;8.43;2.83;;;6.30;99.90;;;;;;6306346;22;20284;-84
2021/12/08 14:31:46;;;;;;;7.22;1.95;;;5.70;99.90;;;;;;6286166;22;20392;-85
2021/12/08 14:34:35;;;;;;;7.60;2.15;;;5.70;99.90;;;;;;6305018;22;20337;-84
2021/12/08 14:37:20;;;;;;;9.32;2.40;;;7.40;99.90;;;;;;6305122;22;20133;-84
2021/12/08 14:40:10;;;;;;;10.25;2.33;;;5.70;99.90;;;;;;6305415;22;20014;-85
2021/12/08 14:42:55;;;;;;;11.95;2.90;;;5.60;99.90;;;;;;6305622;22;20049;-85
2021/12/08 14:45:39;;;;;;;11.25;2.20;;;6.00;99.90;;;;;;6304927;22;20019;-84
2021/12/08 14:48:24;;;;;;;7.55;3.50;;;5.60;99.90;;;;;;6282676;22;20094;-84
2021/12/08 14:51:13;;;;;;;5.32;2.40;;;5.60;99.90;;;;;;6304389;22;20065;-84
2021/12/08 14:54:12;;;;;;;8.93;2.50;;;5.60;99.90;;;;;;6305640;22;20010;-86
2021/12/08 14:57:02;;;;;;;11.15;2.42;;;5.50;99.90;;;;;;6304062;22;20503;-85
2021/12/08 14:59:48;;;;;;;7.93;2.42;;;5.40;99.90;;;;;;6305688;22;20017;-86
2021/12/08 15:02:37;;;;;;;8.68;2.40;;;5.60;99.90;;;;;;6305981;22;20080;-85
2021/12/08 15:05:21;;;;;;;9.80;2.40;;;5.80;99.90;;;;;;6304716;22;20340;-85
2021/12/08 15:08:11;;;;;;;6.80;2.17;;;5.30;99.90;;;;;;6305282;22;20435;-85
2021/12/08 15:10:56;;;;;;;9.60;3.83;;;5.30;99.90;;;;;;6305372;22;20060;-85
2021/12/08 15:13:40;;;;;;;8.60;3.30;;;5.30;99.90;;;;;;6304455;22;20089;-85
2021/12/08 15:16:24;;;;;;;;;;;6.30;99.90;;;;;;6306440;22;20349;-85
2021/12/08 15:19:12;;;;;;;5.45;2.40;;;5.10;99.90;;;;;;6304178;22;19956;-85
2021/12/08 15:22:05;;;;;;;8.82;2.40;;;5.10;99.90;;;;;;6303896;22;20456;-86
2021/12/08 15:24:49;;;;;;;11.57;2.75;;;5.50;99.90;;;;;;6305718;22;20064;-85
2021/12/08 15:27:38;;;;;;;7.57;2.50;;;5.10;99.90;;;;;;6282674;22;20014;-85
2021/12/08 15:30:37;;;;;;;7.13;2.42;;;5.00;99.90;;;;;;6282755;22;20404;-84
2021/12/08 15:33:23;;;;;;;7.93;2.05;;;5.10;99.90;;;;;;6305779;22;20107;-85
2021/12/08 15:36:11;;;;;;;6.97;2.30;;;5.10;99.90;;;;;;6281919;22;20022;-85
2021/12/08 15:38:57;;;;;;;5.85;1.98;;;5.60;99.90;;;;;;6304971;22;20056;-85
2021/12/08 15:41:46;;;;;;;7.88;2.40;;;4.90;99.90;;;;;;6304196;22;20064;-86
2021/12/08 15:44:36;;;;;;;8.27;2.50;;;5.50;99.90;;;;;;6304439;22;20448;-84